createdAt,value
2023-04-10T00:02:29.035Z,101257.97
2023-04-10T00:07:32.246Z,101262.59
2023-04-10T00:12:36.665Z,101264.22
2023-04-10T00:17:40.930Z,101258.75
2023-04-10T00:22:43.761Z,101264.31
2023-04-10T00:27:46.471Z,101264.88
2023-04-10T00:32:50.697Z,101255.06
2023-04-10T00:37:54.594Z,101252.38
2023-04-10T00:42:57.455Z,101243.56
2023-04-10T00:48:01.600Z,101245.94
2023-04-10T00:53:05.785Z,101242.25
2023-04-10T00:58:08.556Z,101232.38
2023-04-10T01:03:12.838Z,101231.50
2023-04-10T01:08:21.581Z,101230.97
2023-04-10T01:13:26.689Z,101228.69
2023-04-10T01:18:34.301Z,101225.03
2023-04-10T01:23:48.805Z,101223.22
2023-04-10T01:28:54.524Z,101216.00
2023-04-10T01:33:59.525Z,101214.19
2023-04-10T01:39:02.332Z,101217.72
2023-04-10T01:44:06.651Z,101223.88
2023-04-10T01:49:09.442Z,101222.06
2023-04-10T01:54:12.377Z,101215.81
2023-04-10T01:59:16.764Z,101223.00
2023-04-10T02:04:19.645Z,101222.13
2023-04-10T02:09:24.921Z,101213.88
2023-04-10T02:14:29.443Z,101212.16
2023-04-10T02:19:32.470Z,101216.56
2023-04-10T02:24:35.236Z,101216.34
2023-04-10T02:29:39.536Z,101213.97
2023-04-10T02:34:43.770Z,101217.41
2023-04-10T02:39:46.565Z,101216.44
2023-04-10T02:44:51.411Z,101214.63
2023-04-10T02:49:54.410Z,101214.50
2023-04-10T02:54:57.287Z,101218.28
2023-04-10T03:00:05.288Z,101220.00
2023-04-10T03:05:28.862Z,101219.25
2023-04-10T03:10:31.756Z,101220.97
2023-04-10T03:15:35.925Z,101227.22
2023-04-10T03:20:39.452Z,101225.25
2023-04-10T03:25:42.311Z,101224.28
2023-04-10T03:30:47.194Z,101222.31
2023-04-10T03:35:50.135Z,101214.97
2023-04-10T03:40:54.024Z,101222.19
2023-04-10T03:46:01.657Z,101218.84
2023-04-10T03:51:05.113Z,101217.19
2023-04-10T03:56:09.307Z,101217.53
2023-04-10T04:01:14.033Z,101215.16
2023-04-10T04:06:32.217Z,101222.75
2023-04-10T04:11:44.297Z,101225.03
2023-04-10T04:17:11.248Z,101221.16
2023-04-10T04:22:52.181Z,101227.06
2023-04-10T04:28:06.961Z,101231.22
2023-04-10T04:33:24.144Z,101235.09
2023-04-10T04:38:45.544Z,101239.63
2023-04-10T04:44:14.210Z,101241.09
2023-04-10T04:49:36.923Z,101244.13
2023-04-10T04:54:58.670Z,101243.44
2023-04-10T05:00:29.970Z,101243.09
2023-04-10T05:06:09.459Z,101248.88
2023-04-10T05:11:23.691Z,101253.47
2023-04-10T05:16:52.414Z,101245.06
2023-04-10T05:22:18.536Z,101262.53
2023-04-10T05:27:29.604Z,101261.09
2023-04-10T05:32:58.550Z,101262.25
2023-04-10T05:38:20.714Z,101257.09
2023-04-10T05:43:39.685Z,101257.19
2023-04-10T05:48:57.653Z,101258.25
2023-04-10T05:54:20.344Z,101254.81
2023-04-10T05:59:43.458Z,101255.88
2023-04-10T06:05:22.085Z,101252.59
2023-04-10T06:10:31.021Z,101251.84
2023-04-10T06:15:33.900Z,101250.25
2023-04-10T06:20:37.043Z,101257.59
2023-04-10T06:25:41.724Z,101255.78
2023-04-10T06:30:44.587Z,101255.97
2023-04-10T06:35:47.733Z,101251.56
2023-04-10T06:40:52.299Z,101247.28
2023-04-10T06:45:55.039Z,101240.25
2023-04-10T06:51:00.424Z,101234.13
2023-04-10T06:56:04.994Z,101232.31
2023-04-10T07:01:08.015Z,101240.16
2023-04-10T07:06:11.316Z,101231.28
2023-04-10T07:11:15.563Z,101235.84
2023-04-10T07:16:18.545Z,101222.81
2023-04-10T07:21:21.360Z,101229.78
2023-04-10T07:26:25.484Z,101228.72
2023-04-10T07:31:28.375Z,101231.38
2023-04-10T07:36:31.868Z,101221.84
2023-04-10T07:41:36.256Z,101219.94
2023-04-10T07:46:39.253Z,101218.38
2023-04-10T07:51:42.038Z,101206.19
2023-04-10T07:56:46.170Z,101198.47
2023-04-10T08:01:49.090Z,101211.72
2023-04-10T08:06:51.904Z,101207.13
2023-04-10T08:11:56.007Z,101201.53
2023-04-10T08:16:58.794Z,101206.06
2023-04-10T08:22:01.584Z,101202.22
2023-04-10T08:27:05.763Z,101199.56
2023-04-10T08:32:08.557Z,101186.88
2023-04-10T08:37:12.302Z,101186.78
2023-04-10T08:42:16.450Z,101186.69
2023-04-10T08:47:19.611Z,101180.44
2023-04-10T08:52:23.721Z,101178.34
2023-04-10T08:57:28.016Z,101171.25
2023-04-10T09:02:31.060Z,101172.13
2023-04-10T09:07:34.100Z,101169.44
2023-04-10T09:12:47.441Z,101147.09
2023-04-10T09:17:57.571Z,101145.16
2023-04-10T09:23:00.600Z,101137.00
2023-04-10T09:28:06.790Z,101135.19
2023-04-10T09:33:27.460Z,101131.53
2023-04-10T09:38:30.400Z,101121.66
2023-04-10T09:43:34.576Z,101120.03
2023-04-10T09:48:37.556Z,101109.19
2023-04-10T09:53:49.470Z,101103.59
2023-04-10T09:58:54.006Z,101087.44
2023-04-10T10:03:57.174Z,101082.06
2023-04-10T10:09:02.860Z,101067.75
2023-04-10T10:14:09.271Z,101065.94
2023-04-10T10:19:14.384Z,101059.63
2023-04-10T10:24:17.387Z,101050.47
2023-04-10T10:29:21.685Z,101044.03
2023-04-10T10:34:24.689Z,101033.41
2023-04-10T10:39:31.921Z,101030.94
2023-04-10T10:44:39.923Z,101023.13
2023-04-10T10:49:56.363Z,101012.16
2023-04-10T10:54:59.779Z,100996.59
2023-04-10T11:00:04.343Z,100992.50
2023-04-10T11:05:07.801Z,100986.56
2023-04-10T11:10:10.758Z,100968.88
2023-04-10T11:15:14.891Z,100967.38
2023-04-10T11:20:17.807Z,100966.50
2023-04-10T11:25:20.549Z,100948.25
2023-04-10T11:30:34.218Z,100944.81
2023-04-10T11:35:37.027Z,100942.75
2023-04-10T11:40:55.393Z,100931.59
2023-04-10T11:46:04.144Z,100927.84
2023-04-10T11:51:11.391Z,100921.72
2023-04-10T11:56:21.112Z,100918.59
2023-04-10T12:01:25.454Z,100909.56
2023-04-10T12:06:28.638Z,100910.09
2023-04-10T12:11:31.644Z,100893.47
2023-04-10T12:16:36.053Z,100884.03
2023-04-10T12:21:38.927Z,100876.59
2023-04-10T12:26:48.499Z,100863.06
2023-04-10T12:31:52.676Z,100850.38
2023-04-10T12:36:55.725Z,100839.44
2023-04-10T12:42:12.094Z,100828.47
2023-04-10T12:47:16.216Z,100817.31
2023-04-10T12:52:23.601Z,100810.09
2023-04-10T12:57:27.280Z,100805.47
2023-04-10T13:02:31.653Z,100777.38
2023-04-10T13:07:34.620Z,100764.59
2023-04-10T13:12:38.772Z,100757.72
2023-04-10T13:17:42.912Z,100749.63
2023-04-10T13:22:45.782Z,100725.94
2023-04-10T13:27:48.539Z,100715.47
2023-04-10T13:32:52.719Z,100708.28
2023-04-10T13:37:55.772Z,100700.75
2023-04-10T13:42:58.543Z,100696.50
2023-04-10T13:48:02.704Z,100692.72
2023-04-10T13:53:07.354Z,100680.72
2023-04-10T13:58:10.178Z,100669.38
2023-04-10T14:03:14.461Z,100657.47
2023-04-10T14:08:17.365Z,100644.50
2023-04-10T14:13:20.196Z,100637.28
2023-04-10T14:18:24.371Z,100640.22
2023-04-10T14:23:27.139Z,100630.81
2023-04-10T14:28:29.870Z,100634.34
2023-04-10T14:33:35.025Z,100619.66
2023-04-10T14:38:37.973Z,100627.13
2023-04-10T14:43:41.197Z,100610.50
2023-04-10T14:48:46.283Z,100616.34
2023-04-10T14:53:49.185Z,100589.66
2023-04-10T14:58:51.970Z,100587.94
2023-04-10T15:03:56.336Z,100573.13
2023-04-10T15:09:00.279Z,100561.25
2023-04-10T15:14:04.442Z,100560.00
2023-04-10T15:19:08.581Z,100554.59
2023-04-10T15:24:11.341Z,100541.28
2023-04-10T15:29:14.174Z,100539.22
2023-04-10T15:34:19.024Z,100538.25
2023-04-10T15:39:21.885Z,100522.94
2023-04-10T15:44:25.022Z,100516.56
2023-04-10T15:49:37.201Z,100516.44
2023-04-10T15:54:40.891Z,100504.13
2023-04-10T15:59:43.815Z,100501.00
2023-04-10T16:04:48.165Z,100488.34
2023-04-10T16:09:52.353Z,100493.06
2023-04-10T16:14:55.214Z,100490.25
2023-04-10T16:19:59.854Z,100481.66
2023-04-10T16:30:11.840Z,100461.28
2023-04-10T16:35:17.693Z,100452.28
2023-04-10T16:40:20.733Z,100440.94
2023-04-10T16:45:23.510Z,100441.56
2023-04-10T16:50:27.651Z,100431.06
2023-04-10T16:55:30.398Z,100423.66
2023-04-10T17:00:33.203Z,100411.56
2023-04-10T17:05:37.344Z,100400.16
2023-04-10T17:10:40.138Z,100399.78
2023-04-10T17:15:43.029Z,100389.38
2023-04-10T17:20:48.298Z,100395.66
2023-04-10T17:25:51.354Z,100401.06
2023-04-10T17:30:54.208Z,100397.22
2023-04-10T17:35:58.334Z,100384.53
2023-04-10T17:41:01.098Z,100386.31
2023-04-10T17:46:03.876Z,100387.06
2023-04-10T17:51:08.529Z,100382.91
2023-04-10T17:56:18.296Z,100381.72
2023-04-10T18:01:24.528Z,100362.78
2023-04-10T18:06:28.709Z,100365.88
2023-04-10T18:11:31.504Z,100356.13
2023-04-10T18:16:34.318Z,100360.50
2023-04-10T18:21:38.624Z,100353.56
2023-04-10T18:26:41.485Z,100351.72
2023-04-10T18:31:44.279Z,100356.25
2023-04-10T18:36:48.437Z,100351.72
2023-04-10T18:41:51.332Z,100342.03
2023-04-10T18:47:03.332Z,100345.69
2023-04-10T18:52:08.373Z,100355.25
2023-04-10T18:57:11.568Z,100350.97
2023-04-10T19:02:14.589Z,100334.22
2023-04-10T19:07:18.957Z,100338.47
2023-04-10T19:12:21.823Z,100331.28
2023-04-10T19:17:24.929Z,100326.53
2023-04-10T19:22:29.178Z,100318.59
2023-04-10T19:27:31.939Z,100299.38
2023-04-10T19:32:34.721Z,100275.16
2023-04-10T19:37:39.116Z,100299.22
2023-04-10T19:42:41.891Z,100283.22
2023-04-10T19:47:44.762Z,100266.81
2023-04-10T19:52:49.112Z,100269.66
2023-04-10T19:57:51.853Z,100253.28
2023-04-10T20:02:54.913Z,100253.28
2023-04-10T20:07:59.435Z,100247.47
2023-04-10T20:13:02.278Z,100233.31
2023-04-10T20:18:05.185Z,100239.69
2023-04-10T20:23:09.569Z,100231.22
2023-04-10T20:28:12.424Z,100223.00
2023-04-10T20:33:15.457Z,100221.06
2023-04-10T20:38:20.300Z,100221.16
2023-04-10T20:43:23.079Z,100206.63
2023-04-10T20:48:25.983Z,100204.91
2023-04-10T20:53:30.314Z,100206.63
2023-04-10T20:58:33.804Z,100209.88
2023-04-10T21:03:36.690Z,100202.94
2023-04-10T21:08:41.005Z,100197.28
2023-04-10T21:13:43.794Z,100193.03
2023-04-10T21:18:47.421Z,100183.13
2023-04-10T21:23:51.599Z,100179.44
2023-04-10T21:28:54.520Z,100173.22
2023-04-10T21:33:57.407Z,100163.16
2023-04-10T21:39:01.542Z,100158.50
2023-04-10T21:44:04.301Z,100138.09
2023-04-10T21:49:07.132Z,100130.34
2023-04-10T21:54:11.419Z,100119.97
2023-04-10T21:59:14.179Z,100111.06
2023-04-10T22:04:17.153Z,100105.16
2023-04-10T22:09:21.390Z,100095.81
2023-04-10T22:14:25.513Z,100102.59
2023-04-10T22:19:28.367Z,100104.69
2023-04-10T22:24:35.200Z,100097.22
2023-04-10T22:29:38.169Z,100090.00
2023-04-10T22:34:41.069Z,100071.88
2023-04-10T22:39:45.304Z,100048.66
2023-04-10T22:44:48.068Z,100041.84
2023-04-10T22:49:50.975Z,100031.63
2023-04-10T22:54:55.143Z,100012.94
2023-04-10T23:00:00.404Z,100002.72
2023-04-10T23:05:03.512Z,100005.09
2023-04-10T23:10:09.408Z,100002.56
2023-04-10T23:15:12.405Z,99991.47
2023-04-10T23:20:15.259Z,99976.72
2023-04-10T23:25:19.463Z,99952.81
2023-04-10T23:30:22.278Z,99945.84
2023-04-10T23:35:25.109Z,99927.44
2023-04-10T23:40:29.332Z,99915.00
2023-04-10T23:45:32.116Z,99899.41
2023-04-10T23:50:34.883Z,99880.44
2023-04-10T23:55:39.724Z,99868.44
